Portada
METAR-TAF:

METAR-TAF

Aeropuertos :

Baréin, Bahréin

Aeropuerto Internacional de Baréin

latitud: 26-16N, longitud: 050-39E, altitud: 2 m

Observación

El informe se hizo hace 29 minutos, a las 20:00 UTC
Viento 4 kt del oeste
Temperatura 17°C
Humedad 68%
Presión 1020 hPa
Visibilidad 10 km o más
sin nubes por debajo de 1500 m y sin presencia de cumulonimbus.

METAR: OBBI 162000Z 26004KT CAVOK 17/11 Q1020 NOSIG

Hora: 23:29 (20:29 UTC)

Pronóstico

El informe se hizo hace 3 horas y 29 minutos, a las 17:00 UTC
Pronóstico válido del 16 a las 18 UTC al 18 a las 00 UTC
Viento 10 kt del noroeste
Visibilidad 10 km o más
sin nubes por debajo de 1500 m y sin presencia de cumulonimbus.
Probabilidad 30% :
Temporalmente
del 17 a las 01 UTC al 17 a las 05 UTC
Visibilidad: 5000 m
calima

TAF: OBBI 161700Z 1618/1800 32010KT CAVOK PROB30 TEMPO 1701/1705 5000 HZ

Observaciones y pronósticos meteorológicos de más de 4000 aeropuertos (mensajes METAR y TAF).

Los puntos amarillos y rojos representan las estaciones disponibles.

Ponga el ratón en el punto deseado para ver el nombre de la estación.

Haga clic para ver las observaciones y los pronósticos meteorológicos.

Para cambiar el mapa : haga clic en los botones verdes con una cruz de color negro para hacer un zoom, en el botón verde con un guión para alejar o en las flechas verdes para mapas adyacentes.


METAR-TAF: